createdAt,value
2023-05-20T00:00:06.677Z,64.8
2023-05-20T00:01:22.867Z,64.8
2023-05-20T00:02:38.221Z,64.8
2023-05-20T00:03:54.253Z,64.8
2023-05-20T00:05:10.586Z,64.9
2023-05-20T00:06:26.640Z,64.8
2023-05-20T00:07:42.960Z,64.9
2023-05-20T00:08:59.008Z,64.9
2023-05-20T00:10:15.199Z,64.9
2023-05-20T00:11:31.389Z,64.9
2023-05-20T00:12:47.713Z,64.9
2023-05-20T00:14:03.907Z,64.9
2023-05-20T00:15:20.091Z,64.9
2023-05-20T00:16:36.126Z,64.9
2023-05-20T00:17:52.322Z,64.9
2023-05-20T00:19:07.676Z,65
2023-05-20T00:20:23.859Z,65
2023-05-20T00:21:40.052Z,65
2023-05-20T00:22:56.071Z,65
2023-05-20T00:24:12.256Z,65
2023-05-20T00:25:28.609Z,65
2023-05-20T00:26:43.820Z,65
2023-05-20T00:28:00.008Z,65
2023-05-20T00:29:16.186Z,65
2023-05-20T00:30:32.380Z,65
2023-05-20T00:31:48.407Z,65
2023-05-20T00:33:04.753Z,65.1
2023-05-20T00:34:20.787Z,65
2023-05-20T00:35:36.966Z,65
2023-05-20T00:36:53.157Z,65.1
2023-05-20T00:38:09.486Z,65.1
2023-05-20T00:39:25.683Z,65.1
2023-05-20T00:40:41.869Z,65.1
2023-05-20T00:41:58.063Z,65
2023-05-20T00:43:14.371Z,65.1
2023-05-20T00:44:30.555Z,65.1
2023-05-20T00:45:46.760Z,65.1
2023-05-20T00:47:02.793Z,65.1
2023-05-20T00:48:18.967Z,65.2
2023-05-20T00:49:35.310Z,65.2
2023-05-20T00:50:51.497Z,65.1
2023-05-20T00:52:07.694Z,65.1
2023-05-20T00:53:23.877Z,65.1
2023-05-20T00:54:39.909Z,65.2
2023-05-20T00:55:56.269Z,65.1
2023-05-20T00:57:12.289Z,65.2
2023-05-20T00:58:28.482Z,65.2
2023-05-20T00:59:43.689Z,65.2
2023-05-20T01:00:59.872Z,65.2
2023-05-20T01:02:16.061Z,65.2
2023-05-20T01:03:32.404Z,65.2
2023-05-20T01:04:48.442Z,65.2
2023-05-20T01:06:04.790Z,65.2
2023-05-20T01:07:20.824Z,65.2
2023-05-20T01:08:37.169Z,65.2
2023-05-20T01:09:53.198Z,65.3
2023-05-20T01:11:09.539Z,65.3
2023-05-20T01:12:25.728Z,65.2
2023-05-20T01:13:41.925Z,65.3
2023-05-20T01:14:57.943Z,65.3
2023-05-20T01:16:13.303Z,65.3
2023-05-20T01:17:29.343Z,65.3
2023-05-20T01:18:45.691Z,65.3
2023-05-20T01:20:01.871Z,65.3
2023-05-20T01:21:17.899Z,65.4
2023-05-20T01:22:34.247Z,65.3
2023-05-20T01:23:50.286Z,65.3
2023-05-20T01:25:06.627Z,65.3
2023-05-20T01:26:22.664Z,65.4
2023-05-20T01:27:39.017Z,65.3
2023-05-20T01:28:55.196Z,65.3
2023-05-20T01:30:11.378Z,65.4
2023-05-20T01:31:27.571Z,65.3
2023-05-20T01:32:42.609Z,65.4
2023-05-20T01:33:58.974Z,65.3
2023-05-20T01:35:15.000Z,65.4
2023-05-20T01:36:31.339Z,65.4
2023-05-20T01:37:47.365Z,65.3
2023-05-20T01:39:03.560Z,65.4
2023-05-20T01:40:19.744Z,65.4
2023-05-20T01:41:36.102Z,65.4
2023-05-20T01:42:52.287Z,65.4
2023-05-20T01:44:08.481Z,65.4
2023-05-20T01:45:24.672Z,65.4
2023-05-20T01:46:40.863Z,65.4
2023-05-20T01:47:56.889Z,65.4
2023-05-20T01:49:12.245Z,65.4
2023-05-20T01:50:28.430Z,65.5
2023-05-20T01:51:44.451Z,65.5
2023-05-20T01:53:00.819Z,65.5
2023-05-20T01:54:17.008Z,65.5
2023-05-20T01:55:33.027Z,65.5
2023-05-20T01:56:49.208Z,65.5
2023-05-20T01:58:05.570Z,65.5
2023-05-20T01:59:21.583Z,65.5
2023-05-20T02:00:37.783Z,65.5
2023-05-20T02:01:54.138Z,65.5
2023-05-20T02:03:10.322Z,65.5
2023-05-20T02:04:26.350Z,65.5
2023-05-20T02:05:41.545Z,65.5
2023-05-20T02:06:57.910Z,65.5
2023-05-20T02:08:13.921Z,65.6
2023-05-20T02:09:30.281Z,65.5
2023-05-20T02:10:46.302Z,65.6
2023-05-20T02:12:02.484Z,65.5
2023-05-20T02:13:18.854Z,65.6
2023-05-20T02:14:35.051Z,65.6
2023-05-20T02:15:51.051Z,65.6
2023-05-20T02:17:07.250Z,65.6
2023-05-20T02:18:23.436Z,65.5
2023-05-20T02:19:39.803Z,65.6
2023-05-20T02:20:55.986Z,65.6
2023-05-20T02:22:11.189Z,65.6
2023-05-20T02:23:27.200Z,65.6
2023-05-20T02:24:43.580Z,65.6
2023-05-20T02:25:59.596Z,65.6
2023-05-20T02:27:15.774Z,65.6
2023-05-20T02:28:32.135Z,65.6
2023-05-20T02:29:48.155Z,65.6
2023-05-20T02:31:04.334Z,65.6
2023-05-20T02:32:20.695Z,65.6
2023-05-20T02:33:36.713Z,65.6
2023-05-20T02:34:53.086Z,65.6
2023-05-20T02:36:09.284Z,65.6
2023-05-20T02:37:25.296Z,65.6
2023-05-20T02:38:40.677Z,65.6
2023-05-20T02:39:56.858Z,65.6
2023-05-20T02:41:12.873Z,65.6
2023-05-20T02:42:29.065Z,65.6
2023-05-20T02:43:45.421Z,65.6
2023-05-20T02:45:01.614Z,65.6
2023-05-20T02:46:17.622Z,65.7
2023-05-20T02:47:33.987Z,65.6
2023-05-20T02:48:50.002Z,65.6
2023-05-20T02:50:06.193Z,65.6
2023-05-20T02:51:22.560Z,65.6
2023-05-20T02:52:38.752Z,65.6
2023-05-20T02:53:54.761Z,65.5
2023-05-20T02:55:10.143Z,65.6
2023-05-20T02:56:26.145Z,65.6
2023-05-20T02:57:42.337Z,65.5
2023-05-20T02:58:58.709Z,65.6
2023-05-20T03:00:14.717Z,65.6
2023-05-20T03:01:30.903Z,65.5
2023-05-20T03:02:47.097Z,65.6
2023-05-20T03:04:03.285Z,65.5
2023-05-20T03:05:19.661Z,65.6
2023-05-20T03:06:35.650Z,65.6
2023-05-20T03:07:51.850Z,65.6
2023-05-20T03:09:08.227Z,65.5
2023-05-20T03:10:24.409Z,65.5
2023-05-20T03:11:39.434Z,65.5
2023-05-20T03:12:55.799Z,65.5
2023-05-20T03:14:11.988Z,65.6
2023-05-20T03:15:27.987Z,65.5
2023-05-20T03:16:44.367Z,65.6
2023-05-20T03:18:00.366Z,65.6
2023-05-20T03:19:16.567Z,65.6
2023-05-20T03:20:32.753Z,65.6
2023-05-20T03:21:49.121Z,65.6
2023-05-20T03:23:05.313Z,65.5
2023-05-20T03:24:21.326Z,65.4
2023-05-20T03:25:37.691Z,65.4
2023-05-20T03:26:53.700Z,65.5
2023-05-20T03:28:09.090Z,65.6
2023-05-20T03:29:25.268Z,65.6
2023-05-20T03:30:41.471Z,65.6
2023-05-20T03:31:57.473Z,65.6
2023-05-20T03:33:13.645Z,65.6
2023-05-20T03:34:29.830Z,65.5
2023-05-20T03:35:46.030Z,65.5
2023-05-20T03:37:02.411Z,65.6
2023-05-20T03:38:18.397Z,65.6
2023-05-20T03:39:34.776Z,65.6
2023-05-20T03:40:50.966Z,65.5
2023-05-20T03:42:06.968Z,65.5
2023-05-20T03:43:23.343Z,65.5
2023-05-20T03:44:38.557Z,66.2
2023-05-20T03:45:54.547Z,67.1
2023-05-20T03:47:10.942Z,68.3
2023-05-20T03:48:27.127Z,68.9
2023-05-20T03:49:43.306Z,70.4
2023-05-20T03:50:59.505Z,71.4
2023-05-20T03:52:15.499Z,71.7
2023-05-20T03:53:31.882Z,71.8
2023-05-20T03:54:47.879Z,71.4
2023-05-20T03:56:04.250Z,71.3
2023-05-20T03:57:20.250Z,71
2023-05-20T03:58:36.445Z,70.9
2023-05-20T03:59:52.823Z,70.5
2023-05-20T04:01:08.022Z,70.5
2023-05-20T04:02:24.207Z,70.5
2023-05-20T04:03:40.404Z,70.3
2023-05-20T04:04:56.395Z,70.1
2023-05-20T04:06:12.784Z,69.9
2023-05-20T04:07:28.975Z,70
2023-05-20T04:08:44.966Z,70.1
2023-05-20T04:10:01.348Z,69.8
2023-05-20T04:11:17.347Z,69.6
2023-05-20T04:12:33.538Z,69.5
2023-05-20T04:13:49.924Z,69.3
2023-05-20T04:15:06.098Z,69.2
2023-05-20T04:16:22.285Z,69
2023-05-20T04:17:37.506Z,68.9
2023-05-20T04:18:53.697Z,68.7
2023-05-20T04:20:09.667Z,68.6
2023-05-20T04:21:26.061Z,68.5
2023-05-20T04:22:42.061Z,68.5
2023-05-20T04:23:58.235Z,68.4
2023-05-20T04:25:14.422Z,68.3
2023-05-20T04:26:30.823Z,68.2
2023-05-20T04:27:46.817Z,68.2
2023-05-20T04:29:03.188Z,68.1
2023-05-20T04:30:19.377Z,68
2023-05-20T04:31:35.373Z,68
2023-05-20T04:32:51.569Z,67.9
2023-05-20T04:34:06.971Z,67.9
2023-05-20T04:35:22.955Z,67.8
2023-05-20T04:36:39.145Z,67.7
2023-05-20T04:37:55.334Z,67.7
2023-05-20T04:39:11.515Z,67.7
2023-05-20T04:40:27.715Z,67.6
2023-05-20T04:41:43.119Z,67.5
2023-05-20T04:42:59.322Z,67.5
2023-05-20T04:44:15.497Z,67.5
2023-05-20T04:45:31.682Z,67.5
2023-05-20T04:46:47.872Z,67.4
2023-05-20T04:48:04.066Z,67.4
2023-05-20T04:49:20.056Z,67.4
2023-05-20T04:50:36.246Z,67.4
2023-05-20T04:51:52.630Z,67.4
2023-05-20T04:53:08.810Z,67.3
2023-05-20T04:54:25.016Z,67.3
2023-05-20T04:55:40.997Z,67.3
2023-05-20T04:56:57.193Z,67.2
2023-05-20T04:58:12.377Z,67.2
2023-05-20T04:59:28.572Z,67.2
2023-05-20T05:00:44.754Z,67.2
2023-05-20T05:02:01.159Z,67.1
2023-05-20T05:03:17.131Z,67.1
2023-05-20T05:04:33.526Z,67.1
2023-05-20T05:05:49.524Z,67
2023-05-20T05:07:05.915Z,67
2023-05-20T05:08:22.104Z,67
2023-05-20T05:09:38.083Z,67
2023-05-20T05:10:54.483Z,67
2023-05-20T05:12:10.676Z,67
2023-05-20T05:13:26.655Z,66.9
2023-05-20T05:14:41.842Z,66.9
2023-05-20T05:15:58.043Z,66.9
2023-05-20T05:17:14.231Z,66.9
2023-05-20T05:18:30.624Z,66.9
2023-05-20T05:19:46.825Z,66.9
2023-05-20T05:21:02.794Z,66.8
2023-05-20T05:22:19.190Z,66.8
2023-05-20T05:23:35.393Z,66.8
2023-05-20T05:24:51.572Z,66.8
2023-05-20T05:26:07.756Z,66.8
2023-05-20T05:27:23.739Z,66.8
2023-05-20T05:28:40.129Z,66.7
2023-05-20T05:29:56.320Z,66.7
2023-05-20T05:31:11.311Z,66.7
2023-05-20T05:32:27.715Z,66.7
2023-05-20T05:33:43.922Z,66.6
2023-05-20T05:35:00.097Z,66.6
2023-05-20T05:36:16.078Z,66.6
2023-05-20T05:37:32.485Z,66.5
2023-05-20T05:38:48.668Z,66.5
2023-05-20T05:40:04.642Z,66.5
2023-05-20T05:41:20.836Z,66.5
2023-05-20T05:42:37.240Z,66.4
2023-05-20T05:43:53.215Z,66.4
2023-05-20T05:45:09.600Z,66.4
2023-05-20T05:46:25.802Z,66.4
2023-05-20T05:47:41.002Z,66.4
2023-05-20T05:48:57.199Z,66.3
2023-05-20T05:50:13.384Z,66.3
2023-05-20T05:51:29.348Z,66.3
2023-05-20T05:52:45.533Z,66.2
2023-05-20T05:54:01.945Z,66.2
2023-05-20T05:55:18.126Z,66.2
2023-05-20T05:56:34.317Z,66.1
2023-05-20T05:57:50.521Z,66.1
2023-05-20T05:59:06.483Z,66.1
2023-05-20T06:00:22.899Z,66.1
2023-05-20T06:01:39.089Z,66.1
2023-05-20T06:02:55.277Z,66.1
2023-05-20T06:04:10.468Z,66.1
2023-05-20T06:05:26.454Z,66
2023-05-20T06:06:42.643Z,66
2023-05-20T06:07:59.046Z,66
2023-05-20T06:09:15.232Z,65.9
2023-05-20T06:10:31.417Z,65.9
2023-05-20T06:11:47.392Z,65.9
2023-05-20T06:13:03.805Z,65.8
2023-05-20T06:14:19.756Z,65.8
2023-05-20T06:15:36.172Z,65.7
2023-05-20T06:16:52.362Z,65.7
2023-05-20T06:18:08.327Z,65.7
2023-05-20T06:19:24.743Z,65.6
2023-05-20T06:20:39.946Z,65.6
2023-05-20T06:21:55.909Z,65.6
2023-05-20T06:23:12.325Z,65.6
2023-05-20T06:24:28.507Z,65.6
2023-05-20T06:25:44.696Z,65.6
2023-05-20T06:27:00.883Z,65.6
2023-05-20T06:28:17.085Z,65.6
2023-05-20T06:29:33.052Z,65.6
2023-05-20T06:30:49.241Z,65.6
2023-05-20T06:32:05.641Z,65.6
2023-05-20T06:33:21.825Z,65.6
2023-05-20T06:34:38.020Z,65.6
2023-05-20T06:35:53.988Z,65.6
2023-05-20T06:37:09.427Z,65.6
2023-05-20T06:38:25.389Z,65.5
2023-05-20T06:39:41.786Z,65.5
2023-05-20T06:40:57.974Z,65.5
2023-05-20T06:42:14.162Z,65.5
2023-05-20T06:43:30.126Z,65.4
2023-05-20T06:44:46.318Z,65.4
2023-05-20T06:46:02.748Z,65.3
2023-05-20T06:47:18.924Z,65.2
2023-05-20T06:48:34.885Z,65.1
2023-05-20T06:49:51.305Z,65.1
2023-05-20T06:51:07.486Z,64.9
2023-05-20T06:52:23.454Z,64.9
2023-05-20T06:53:38.885Z,64.9
2023-05-20T06:54:55.075Z,64.9
2023-05-20T06:56:11.031Z,64.8
2023-05-20T06:57:27.232Z,64.8
2023-05-20T06:58:43.415Z,64.8
2023-05-20T06:59:59.605Z,64.8
2023-05-20T07:01:16.017Z,64.8
2023-05-20T07:02:32.213Z,64.8
2023-05-20T07:03:48.401Z,64.7
2023-05-20T07:05:04.351Z,64.7
2023-05-20T07:06:20.772Z,64.7
2023-05-20T07:07:36.955Z,64.7
2023-05-20T07:08:52.924Z,64.7
2023-05-20T07:10:08.358Z,64.7
2023-05-20T07:11:24.322Z,64.7
2023-05-20T07:12:40.512Z,64.7
2023-05-20T07:13:56.932Z,64.7
2023-05-20T07:15:12.875Z,64.7
2023-05-20T07:16:29.307Z,64.7
2023-05-20T07:17:45.485Z,64.6
2023-05-20T07:19:01.438Z,64.7
2023-05-20T07:20:17.872Z,64.7
2023-05-20T07:21:33.833Z,64.7
2023-05-20T07:22:50.256Z,64.6
2023-05-20T07:24:06.427Z,64.7
2023-05-20T07:25:22.620Z,64.6
2023-05-20T07:26:37.597Z,64.6
2023-05-20T07:27:54.000Z,64.6
2023-05-20T07:29:10.201Z,64.6
2023-05-20T07:30:26.403Z,64.6
2023-05-20T07:31:42.590Z,64.5
2023-05-20T07:32:58.774Z,64.5
2023-05-20T07:34:14.735Z,64.4
2023-05-20T07:35:31.144Z,64.3
2023-05-20T07:36:47.332Z,64.3
2023-05-20T07:38:03.287Z,64.3
2023-05-20T07:39:19.481Z,64.3
2023-05-20T07:40:35.663Z,64.3
2023-05-20T07:41:51.858Z,64.2
2023-05-20T07:43:07.309Z,64.2
2023-05-20T07:44:23.484Z,64.1
2023-05-20T07:45:39.440Z,64
2023-05-20T07:46:55.626Z,64
2023-05-20T07:48:12.055Z,64
2023-05-20T07:49:28.252Z,63.9
2023-05-20T07:50:44.192Z,63.9
2023-05-20T07:52:00.632Z,63.8
2023-05-20T07:53:16.570Z,63.8
2023-05-20T07:54:32.760Z,63.7
2023-05-20T07:55:48.952Z,63.7
2023-05-20T07:57:05.133Z,63.6
2023-05-20T07:58:21.572Z,63.5
2023-05-20T07:59:36.533Z,63.4
2023-05-20T08:00:52.728Z,63.4
2023-05-20T08:02:09.151Z,63.3
2023-05-20T08:03:25.350Z,63.3
2023-05-20T08:04:41.519Z,63.2
2023-05-20T08:05:57.706Z,63.1
2023-05-20T08:07:13.897Z,63.1
2023-05-20T08:08:29.851Z,63
2023-05-20T08:09:46.283Z,63
2023-05-20T08:11:02.225Z,63
2023-05-20T08:12:18.666Z,63
2023-05-20T08:13:34.855Z,63
2023-05-20T08:14:51.039Z,62.9
2023-05-20T08:16:05.994Z,62.9
2023-05-20T08:17:22.441Z,62.9
2023-05-20T08:18:38.615Z,62.8
2023-05-20T08:19:54.812Z,62.8
2023-05-20T08:21:11.004Z,62.8
2023-05-20T08:22:27.182Z,62.7
2023-05-20T08:23:43.139Z,62.7
2023-05-20T08:24:59.313Z,62.7
2023-05-20T08:26:15.512Z,62.7
2023-05-20T08:27:31.943Z,62.6
2023-05-20T08:28:47.886Z,62.5
2023-05-20T08:30:04.314Z,62.5
2023-05-20T08:31:20.271Z,62.5
2023-05-20T08:32:35.720Z,62.5
2023-05-20T08:33:51.906Z,62.5
2023-05-20T08:35:07.848Z,62.5
2023-05-20T08:36:24.023Z,62.4
2023-05-20T08:37:40.218Z,62.2
2023-05-20T08:38:56.404Z,62.4
2023-05-20T08:40:12.609Z,62.4
2023-05-20T08:41:29.035Z,62.5
2023-05-20T08:42:45.225Z,62.6
2023-05-20T08:44:01.411Z,62.7
2023-05-20T08:45:17.612Z,62.7
2023-05-20T08:46:33.541Z,62.7
2023-05-20T08:47:49.984Z,62.7
2023-05-20T08:49:05.194Z,62.7
2023-05-20T08:50:21.119Z,62.7
2023-05-20T08:51:37.572Z,62.7
2023-05-20T08:52:53.757Z,62.6
2023-05-20T08:54:09.700Z,62.5
2023-05-20T08:55:25.876Z,62.4
2023-05-20T08:56:41.083Z,62.4
2023-05-20T08:57:57.534Z,62.4
2023-05-20T08:59:13.472Z,62.4
2023-05-20T09:00:29.660Z,62.4
2023-05-20T09:01:45.844Z,62.2
2023-05-20T09:03:02.026Z,62.1
2023-05-20T09:04:18.482Z,62.2
2023-05-20T09:05:34.406Z,62.4
2023-05-20T09:06:50.855Z,62.1
2023-05-20T09:08:07.044Z,62.4
2023-05-20T09:09:22.971Z,62.4
2023-05-20T09:10:39.161Z,62.5
2023-05-20T09:11:55.359Z,62.4
2023-05-20T09:13:10.808Z,62.4
2023-05-20T09:14:27.011Z,62.4
2023-05-20T09:15:42.944Z,62.4
2023-05-20T09:16:59.124Z,62.4
2023-05-20T09:18:15.321Z,62.4
2023-05-20T09:19:31.748Z,62.4
2023-05-20T09:20:47.946Z,62.2
2023-05-20T09:22:04.138Z,62.2
2023-05-20T09:23:20.066Z,62.2
2023-05-20T09:24:36.260Z,62.1
2023-05-20T09:25:52.692Z,62.1
2023-05-20T09:27:08.889Z,62.1
2023-05-20T09:28:24.813Z,62.1
2023-05-20T09:29:40.290Z,62
2023-05-20T09:30:56.464Z,62
2023-05-20T09:32:12.412Z,61.9
2023-05-20T09:33:28.848Z,61.8
2023-05-20T09:34:45.031Z,61.7
2023-05-20T09:36:00.961Z,61.7
2023-05-20T09:37:17.410Z,62.8
2023-05-20T09:38:33.344Z,62.9
2023-05-20T09:39:49.792Z,63.3
2023-05-20T09:41:05.712Z,63.2
2023-05-20T09:42:21.902Z,63.2
2023-05-20T09:43:38.359Z,63.1
2023-05-20T09:44:54.281Z,63.1
2023-05-20T09:46:09.750Z,63.3
2023-05-20T09:47:25.682Z,63.4
2023-05-20T09:48:41.868Z,63.5
2023-05-20T09:49:58.067Z,63.4
2023-05-20T09:51:14.513Z,63.4
2023-05-20T09:52:30.427Z,63.1
2023-05-20T09:53:46.618Z,63
2023-05-20T09:55:02.825Z,63
2023-05-20T09:56:19.001Z,63
2023-05-20T09:57:35.448Z,63
2023-05-20T09:58:51.381Z,62.8
2023-05-20T10:00:07.564Z,62.9
2023-05-20T10:01:23.747Z,62.9
2023-05-20T10:02:39.224Z,62.8
2023-05-20T10:03:55.145Z,63
2023-05-20T10:05:11.596Z,62.9
2023-05-20T10:06:27.533Z,62.8
2023-05-20T10:07:43.992Z,62.5
2023-05-20T10:09:00.166Z,62.3
2023-05-20T10:10:16.100Z,62.3
2023-05-20T10:11:32.551Z,62.2
2023-05-20T10:12:48.474Z,62.1
2023-05-20T10:14:04.656Z,62.1
2023-05-20T10:15:20.839Z,61.9
2023-05-20T10:16:37.022Z,61.7
2023-05-20T10:17:53.205Z,61.7
2023-05-20T10:19:08.413Z,61.7
2023-05-20T10:20:24.000Z,61.6
2023-05-20T10:21:40.783Z,61.4
2023-05-20T10:22:57.242Z,61.5
2023-05-20T10:24:13.439Z,61.7
2023-05-20T10:25:29.617Z,61.8
2023-05-20T10:26:45.809Z,61.8
2023-05-20T10:28:01.996Z,62
2023-05-20T10:29:18.187Z,61.9
2023-05-20T10:30:34.376Z,61.8
2023-05-20T10:31:50.279Z,61.8
2023-05-20T10:33:06.466Z,61.7
2023-05-20T10:34:22.660Z,61.4
2023-05-20T10:35:38.133Z,61.2
2023-05-20T10:36:54.315Z,61.3
2023-05-20T10:38:10.503Z,61.5
2023-05-20T10:39:26.417Z,61.7
2023-05-20T10:40:42.886Z,61.8
2023-05-20T10:41:58.794Z,61.9
2023-05-20T10:43:15.265Z,61.8
2023-05-20T10:44:31.173Z,61.8
2023-05-20T10:45:47.365Z,61.8
2023-05-20T10:47:03.543Z,61.6
2023-05-20T10:48:19.730Z,61.4
2023-05-20T10:49:35.909Z,61.4
2023-05-20T10:50:52.099Z,61.1
2023-05-20T10:52:07.302Z,61.2
2023-05-20T10:53:23.769Z,61.3
2023-05-20T10:54:39.962Z,61.4
2023-05-20T10:55:55.864Z,61.5
2023-05-20T10:57:12.054Z,61.5
2023-05-20T10:58:28.513Z,61.4
2023-05-20T10:59:44.437Z,61.6
2023-05-20T11:01:00.903Z,61.5
2023-05-20T11:02:17.090Z,61.3
2023-05-20T11:03:33.001Z,60.9
2023-05-20T11:04:49.171Z,61
2023-05-20T11:06:05.649Z,60.9
2023-05-20T11:07:21.553Z,60.8
2023-05-20T11:08:37.025Z,61
2023-05-20T11:09:52.952Z,61
2023-05-20T11:11:09.132Z,60.8
2023-05-20T11:12:25.324Z,60.9
2023-05-20T11:13:41.772Z,60.7
2023-05-20T11:14:57.692Z,60.4
2023-05-20T11:16:14.156Z,60.4
2023-05-20T11:17:30.059Z,60
2023-05-20T11:18:46.242Z,59.7
2023-05-20T11:20:02.449Z,59.4
2023-05-20T11:21:18.901Z,59.3
2023-05-20T11:22:34.822Z,59.6
2023-05-20T11:23:51.003Z,59.8
2023-05-20T11:25:06.213Z,59.5
2023-05-20T11:26:22.386Z,59.5
2023-05-20T11:27:38.579Z,59.4
2023-05-20T11:28:55.040Z,59.1
2023-05-20T11:30:10.942Z,59
2023-05-20T11:31:27.427Z,59.1
2023-05-20T11:32:43.316Z,59.3
2023-05-20T11:33:59.509Z,59.7
2023-05-20T11:35:15.689Z,59.4
2023-05-20T11:36:32.159Z,59.4
2023-05-20T11:37:48.076Z,59.3
2023-05-20T11:39:04.538Z,58.6
2023-05-20T11:40:20.723Z,58.5
2023-05-20T11:41:35.656Z,58.8
2023-05-20T11:42:52.115Z,59
2023-05-20T11:44:08.309Z,58.7
2023-05-20T11:45:24.483Z,57.5
2023-05-20T11:46:40.665Z,56.2
2023-05-20T11:47:56.860Z,56.4
2023-05-20T11:49:13.032Z,56
2023-05-20T11:50:29.243Z,56.9
2023-05-20T11:51:45.422Z,57.6
2023-05-20T11:53:01.611Z,58.1
2023-05-20T11:54:17.791Z,58.4
2023-05-20T11:55:33.967Z,58.7
2023-05-20T11:56:50.168Z,58.9
2023-05-20T11:58:05.381Z,57.4
2023-05-20T11:59:21.560Z,56.8
2023-05-20T12:00:37.746Z,57.5
2023-05-20T12:01:53.938Z,58
2023-05-20T12:03:10.129Z,58.4
2023-05-20T12:04:26.293Z,58.8
2023-05-20T12:05:42.510Z,59
2023-05-20T12:06:58.701Z,58.7
2023-05-20T12:08:14.859Z,56.8
2023-05-20T12:09:31.071Z,57.5
2023-05-20T12:10:47.239Z,57.3
2023-05-20T12:12:03.412Z,56.8
2023-05-20T12:13:19.605Z,57.2
2023-05-20T12:14:34.834Z,57.5
2023-05-20T12:15:51.017Z,57.5
2023-05-20T12:17:07.183Z,57
2023-05-20T12:18:23.367Z,57.1
2023-05-20T12:19:39.557Z,56.3
2023-05-20T12:20:55.765Z,56.7
2023-05-20T12:22:11.965Z,56.5
2023-05-20T12:23:28.138Z,55.3
2023-05-20T12:24:44.299Z,54.1
2023-05-20T12:26:00.495Z,53.2
2023-05-20T12:27:16.683Z,52.4
2023-05-20T12:28:32.902Z,52.8
2023-05-20T12:29:49.081Z,53.1
2023-05-20T12:31:04.290Z,54.5
2023-05-20T12:32:20.433Z,55.5
2023-05-20T12:33:36.663Z,55.7
2023-05-20T12:34:52.827Z,55.8
2023-05-20T12:36:09.014Z,55.5
2023-05-20T12:37:25.215Z,55.6
2023-05-20T12:38:41.387Z,55.7
2023-05-20T12:39:57.602Z,54.9
2023-05-20T12:41:13.789Z,53.5
2023-05-20T12:42:29.934Z,52.5
2023-05-20T12:43:46.152Z,52
2023-05-20T12:45:02.312Z,51.6
2023-05-20T12:46:18.496Z,51.4
2023-05-20T12:47:33.727Z,51.2
2023-05-20T12:48:49.915Z,50.9
2023-05-20T12:50:06.070Z,50.6
2023-05-20T12:51:22.262Z,50.5
2023-05-20T12:52:38.451Z,50.7
2023-05-20T12:53:54.678Z,51.8
2023-05-20T12:55:10.863Z,53
2023-05-20T12:56:27.039Z,53.8
2023-05-20T12:57:43.205Z,54.4
2023-05-20T12:58:59.388Z,54.7
2023-05-20T13:00:15.613Z,54.8
2023-05-20T13:01:31.757Z,54.6
2023-05-20T13:02:47.951Z,54.8
2023-05-20T13:04:03.145Z,54.5
2023-05-20T13:05:19.343Z,53.8
2023-05-20T13:06:35.554Z,53.7
2023-05-20T13:07:51.749Z,54.1
2023-05-20T13:09:07.939Z,54.4
2023-05-20T13:10:24.111Z,54.5
2023-05-20T13:11:39.288Z,54.7
2023-05-20T13:12:55.474Z,54.8
2023-05-20T13:14:11.708Z,54.8
2023-05-20T13:15:27.888Z,54.6
2023-05-20T13:16:44.046Z,54.4
2023-05-20T13:18:00.232Z,52.9
2023-05-20T13:19:16.458Z,52.5
2023-05-20T13:20:32.633Z,52.1
2023-05-20T13:21:48.829Z,51.7
2023-05-20T13:23:04.983Z,51.2
2023-05-20T13:24:21.156Z,50.6
2023-05-20T13:25:37.349Z,50.3
2023-05-20T13:26:53.546Z,50.1
2023-05-20T13:28:08.750Z,49.8
2023-05-20T13:29:24.923Z,49.5
2023-05-20T13:30:41.157Z,49.3
2023-05-20T13:31:57.297Z,49.2
2023-05-20T13:33:13.493Z,49.1
2023-05-20T13:34:29.681Z,48.8
2023-05-20T13:35:45.868Z,48.7
2023-05-20T13:37:02.044Z,48.6
2023-05-20T13:38:18.289Z,48.5
2023-05-20T13:39:34.426Z,48.4
2023-05-20T13:40:50.650Z,48.3
2023-05-20T13:42:06.806Z,48.1
2023-05-20T13:43:22.986Z,48
2023-05-20T13:44:38.238Z,47.8
2023-05-20T13:45:54.382Z,47.8
2023-05-20T13:47:10.615Z,47.6
2023-05-20T13:48:26.743Z,47.4
2023-05-20T13:49:42.979Z,47.3
2023-05-20T13:50:59.127Z,47.1
2023-05-20T13:52:15.363Z,47
2023-05-20T13:53:31.494Z,47
2023-05-20T13:54:47.694Z,46.9
2023-05-20T13:56:03.872Z,46.8
2023-05-20T13:57:20.110Z,46.8
2023-05-20T13:58:36.257Z,46.7
2023-05-20T13:59:52.478Z,46.6
2023-05-20T14:01:07.684Z,46.5
2023-05-20T14:02:23.869Z,46.5
2023-05-20T14:03:40.061Z,46.4
2023-05-20T14:04:56.255Z,46.3
2023-05-20T14:06:12.388Z,46.3
2023-05-20T14:07:28.567Z,46.3
2023-05-20T14:08:44.804Z,46.2
2023-05-20T14:10:01.001Z,46.3
2023-05-20T14:11:17.144Z,46.2
2023-05-20T14:12:33.314Z,46.3
2023-05-20T14:13:49.500Z,46.3
2023-05-20T14:15:05.698Z,46.1
2023-05-20T14:16:21.884Z,46.1
2023-05-20T14:17:37.131Z,46
2023-05-20T14:18:53.325Z,46
2023-05-20T14:20:09.456Z,46
2023-05-20T14:21:25.641Z,45.8
2023-05-20T14:22:41.830Z,45.8
2023-05-20T14:23:58.074Z,45.8
2023-05-20T14:25:14.210Z,45.6
2023-05-20T14:26:30.458Z,45.8
2023-05-20T14:27:46.626Z,45.6
2023-05-20T14:29:02.763Z,45.6
2023-05-20T14:30:18.970Z,45.6
2023-05-20T14:31:35.192Z,45.6
2023-05-20T14:32:51.341Z,45.6
2023-05-20T14:34:06.585Z,45.6
2023-05-20T14:35:22.777Z,45.6
2023-05-20T14:36:38.910Z,45.6
2023-05-20T14:37:55.141Z,45.8
2023-05-20T14:39:11.281Z,45.5
2023-05-20T14:40:27.480Z,45.6
2023-05-20T14:41:43.656Z,45.6
2023-05-20T14:42:59.841Z,45.8
2023-05-20T14:44:16.082Z,45.8
2023-05-20T14:45:32.219Z,46
2023-05-20T14:46:48.409Z,45.9
2023-05-20T14:48:04.656Z,46
2023-05-20T14:49:20.832Z,45.8
2023-05-20T14:50:36.038Z,45.8
2023-05-20T14:51:52.221Z,45.8
2023-05-20T14:53:08.411Z,45.6
2023-05-20T14:54:24.600Z,45.9
2023-05-20T14:55:40.739Z,46.1
2023-05-20T14:56:56.983Z,46.2
2023-05-20T14:58:13.098Z,46.2
2023-05-20T14:59:29.289Z,46.3
2023-05-20T15:00:45.472Z,46.2
2023-05-20T15:02:01.734Z,46.2
2023-05-20T15:03:17.909Z,46.3
2023-05-20T15:04:34.037Z,46.3
2023-05-20T15:05:50.240Z,46.3
2023-05-20T15:07:05.441Z,46.2
2023-05-20T15:08:21.683Z,46.4
2023-05-20T15:09:37.871Z,46.4
2023-05-20T15:10:53.997Z,46.4
2023-05-20T15:12:10.177Z,46.4
2023-05-20T15:13:26.421Z,46.5
2023-05-20T15:14:42.560Z,46.6
2023-05-20T15:15:58.748Z,46.4
2023-05-20T15:17:14.930Z,46.4
2023-05-20T15:18:31.113Z,46.5
2023-05-20T15:19:47.300Z,46.5
2023-05-20T15:21:03.486Z,46.5
2023-05-20T15:22:19.679Z,46.5
2023-05-20T15:23:34.882Z,46.6
2023-05-20T15:24:51.125Z,46.7
2023-05-20T15:26:07.320Z,46.8
2023-05-20T15:27:23.451Z,46.8
2023-05-20T15:28:39.691Z,46.8
2023-05-20T15:29:55.818Z,46.9
2023-05-20T15:31:12.004Z,46.9
2023-05-20T15:32:28.247Z,46.8
2023-05-20T15:33:44.388Z,46.9
2023-05-20T15:35:00.630Z,47.1
2023-05-20T15:36:16.750Z,47
2023-05-20T15:37:32.937Z,46.9
2023-05-20T15:38:49.131Z,47
2023-05-20T15:40:04.321Z,47
2023-05-20T15:41:20.509Z,46.9
2023-05-20T15:42:36.777Z,47
2023-05-20T15:43:52.896Z,46.9
2023-05-20T15:45:09.071Z,46.9
2023-05-20T15:46:25.258Z,47.1
2023-05-20T15:47:41.515Z,47.2
2023-05-20T15:48:57.643Z,47.5
2023-05-20T15:50:13.820Z,47.8
2023-05-20T15:51:30.024Z,48.2
2023-05-20T15:52:46.205Z,48.4
2023-05-20T15:54:02.391Z,48.4
2023-05-20T15:55:18.639Z,48.4
2023-05-20T15:56:33.844Z,48.4
2023-05-20T15:57:50.039Z,48.6
2023-05-20T15:59:06.147Z,49
2023-05-20T16:00:22.349Z,48.9
2023-05-20T16:01:38.533Z,48.9
2023-05-20T16:02:54.705Z,49
2023-05-20T16:04:10.907Z,49.1
2023-05-20T16:05:27.156Z,49.4
2023-05-20T16:06:43.338Z,49.7
2023-05-20T16:07:59.452Z,50
2023-05-20T16:09:15.646Z,50.4
2023-05-20T16:10:31.905Z,51
2023-05-20T16:11:48.024Z,51.6
2023-05-20T16:13:03.226Z,52.2
2023-05-20T16:14:19.404Z,52.5
2023-05-20T16:15:35.602Z,52.8
2023-05-20T16:16:51.863Z,53
2023-05-20T16:18:07.981Z,53.3
2023-05-20T16:19:24.223Z,53.5
2023-05-20T16:20:40.346Z,53.7
2023-05-20T16:21:56.545Z,53.8
2023-05-20T16:23:12.720Z,54
2023-05-20T16:24:28.920Z,54.1
2023-05-20T16:25:45.096Z,54.2
2023-05-20T16:27:01.289Z,54.4
2023-05-20T16:28:17.540Z,54.5
2023-05-20T16:29:32.666Z,54.5
2023-05-20T16:30:48.864Z,54.6
2023-05-20T16:32:05.127Z,54.7
2023-05-20T16:33:21.230Z,54.7
2023-05-20T16:34:37.413Z,54.9
2023-05-20T16:35:53.674Z,55
2023-05-20T16:37:09.873Z,55
2023-05-20T16:38:26.055Z,55.1
2023-05-20T16:39:42.160Z,55.3
2023-05-20T16:40:58.363Z,55.2
2023-05-20T16:42:14.628Z,55.4
2023-05-20T16:43:30.733Z,55.5
2023-05-20T16:44:46.996Z,55.6
2023-05-20T16:47:18.317Z,55.7
2023-05-20T16:48:34.491Z,55.7
2023-05-20T16:49:50.672Z,55.8
2023-05-20T16:51:06.940Z,55.8
2023-05-20T16:52:23.061Z,55.9
2023-05-20T16:53:39.249Z,56
2023-05-20T16:54:55.503Z,56
2023-05-20T16:56:11.627Z,56.1
2023-05-20T16:57:27.874Z,56.1
2023-05-20T16:58:43.996Z,56.3
2023-05-20T17:00:00.170Z,56.3